createdAt,value
2023-06-06T00:02:24.321Z,97.30
2023-06-06T00:04:51.638Z,97.30
2023-06-06T00:07:18.552Z,97.30
2023-06-06T00:09:45.306Z,97.90
2023-06-06T00:12:14.178Z,97.40
2023-06-06T00:14:42.891Z,97.60
2023-06-06T00:17:12.269Z,97.60
2023-06-06T00:19:43.555Z,97.30
2023-06-06T00:22:10.807Z,97.90
2023-06-06T00:24:37.612Z,97.70
2023-06-06T00:27:04.562Z,97.40
2023-06-06T00:29:31.433Z,97.80
2023-06-06T00:32:00.784Z,97.80
2023-06-06T00:34:27.741Z,98.20
2023-06-06T00:36:56.729Z,98.20
2023-06-06T00:39:27.990Z,98.30
2023-06-06T00:41:59.684Z,98.80
2023-06-06T00:44:26.674Z,98.70
2023-06-06T00:46:53.864Z,98.80
2023-06-06T00:49:20.682Z,99.50
2023-06-06T00:51:49.953Z,99.90
2023-06-06T00:54:17.307Z,99.60
2023-06-06T00:56:45.091Z,99.70
2023-06-06T00:59:15.286Z,99.90
2023-06-06T01:01:44.889Z,99.90
2023-06-06T01:04:13.718Z,99.90
2023-06-06T01:06:40.604Z,99.90
2023-06-06T01:09:08.886Z,99.90
2023-06-06T01:11:41.411Z,99.90
2023-06-06T01:14:37.557Z,99.90
2023-06-06T01:17:08.776Z,99.00
2023-06-06T01:19:39.170Z,98.60
2023-06-06T01:22:06.484Z,98.60
2023-06-06T01:24:38.362Z,98.50
2023-06-06T01:27:06.051Z,98.20
2023-06-06T01:29:33.108Z,98.30
2023-06-06T01:32:09.237Z,98.40
2023-06-06T01:34:45.715Z,98.40
2023-06-06T01:37:21.572Z,98.60
2023-06-06T01:39:51.143Z,99.00
2023-06-06T01:42:18.800Z,98.60
2023-06-06T01:44:47.990Z,98.60
2023-06-06T01:47:15.257Z,98.90
2023-06-06T01:49:44.513Z,99.10
2023-06-06T01:52:12.013Z,98.70
2023-06-06T01:54:41.894Z,98.70
2023-06-06T01:57:08.946Z,98.10
2023-06-06T01:59:37.616Z,97.80
2023-06-06T02:02:07.472Z,97.90
2023-06-06T02:04:37.007Z,97.90
2023-06-06T02:07:06.500Z,98.40
2023-06-06T02:09:33.779Z,98.70
2023-06-06T02:12:00.608Z,98.90
2023-06-06T02:14:30.070Z,99.40
2023-06-06T02:16:59.424Z,99.40
2023-06-06T02:19:28.579Z,99.90
2023-06-06T02:21:57.887Z,99.80
2023-06-06T02:24:27.978Z,99.80
2023-06-06T02:26:58.288Z,99.80
2023-06-06T02:29:25.548Z,99.50
2023-06-06T02:31:53.727Z,98.80
2023-06-06T02:34:20.612Z,98.50
2023-06-06T02:36:49.731Z,98.10
2023-06-06T02:39:16.752Z,98.30
2023-06-06T02:41:43.648Z,98.10
2023-06-06T02:44:12.821Z,98.30
2023-06-06T02:46:39.789Z,98.60
2023-06-06T02:49:06.760Z,99.20
2023-06-06T02:51:33.617Z,99.00
2023-06-06T02:54:00.463Z,98.90
2023-06-06T02:56:27.258Z,98.10
2023-06-06T02:58:54.517Z,98.40
2023-06-06T03:01:24.178Z,98.30
2023-06-06T03:03:51.087Z,98.20
2023-06-06T03:06:21.879Z,98.20
2023-06-06T03:08:56.305Z,97.70
2023-06-06T03:11:23.275Z,97.30
2023-06-06T03:13:52.389Z,97.40
2023-06-06T03:16:19.257Z,97.20
2023-06-06T03:18:49.045Z,97.50
2023-06-06T03:21:18.470Z,97.50
2023-06-06T03:23:48.199Z,97.20
2023-06-06T03:26:17.582Z,97.40
2023-06-06T03:28:46.838Z,97.20
2023-06-06T03:31:14.606Z,97.20
2023-06-06T03:33:44.223Z,97.20
2023-06-06T03:36:16.017Z,97.00
2023-06-06T03:38:42.777Z,97.00
2023-06-06T03:41:15.398Z,96.80
2023-06-06T03:43:45.303Z,96.90
2023-06-06T03:46:14.536Z,97.10
2023-06-06T03:48:44.305Z,97.10
2023-06-06T03:51:11.486Z,97.00
2023-06-06T03:53:40.770Z,97.10
2023-06-06T03:56:07.910Z,96.80
2023-06-06T03:58:34.815Z,97.00
2023-06-06T04:01:02.477Z,96.70
2023-06-06T04:03:37.743Z,96.90
2023-06-06T04:06:06.439Z,96.80
2023-06-06T04:08:42.012Z,96.80
2023-06-06T04:11:09.657Z,96.90
2023-06-06T04:13:38.801Z,96.90
2023-06-06T04:16:06.648Z,97.60
2023-06-06T04:18:37.797Z,96.90
2023-06-06T04:21:06.929Z,96.80
2023-06-06T04:23:34.189Z,96.70
2023-06-06T04:26:03.969Z,96.80
2023-06-06T04:28:33.141Z,96.70
2023-06-06T04:31:01.241Z,96.70
2023-06-06T04:33:31.115Z,96.80
2023-06-06T04:36:01.575Z,96.70
2023-06-06T04:38:31.007Z,96.70
2023-06-06T04:41:31.499Z,96.50
2023-06-06T04:43:52.701Z,96.80
2023-06-06T04:46:23.279Z,96.50
2023-06-06T04:48:54.641Z,96.20
2023-06-06T04:51:23.364Z,96.00
2023-06-06T04:53:54.531Z,95.80
2023-06-06T04:56:21.779Z,95.50
2023-06-06T04:58:49.895Z,95.50
2023-06-06T05:01:17.247Z,95.20
2023-06-06T05:03:44.274Z,95.10
2023-06-06T05:06:13.365Z,95.10
2023-06-06T05:08:45.672Z,95.20
2023-06-06T05:11:12.989Z,94.90
2023-06-06T05:13:40.321Z,94.70
2023-06-06T05:16:08.922Z,94.70
2023-06-06T05:18:37.068Z,94.30
2023-06-06T05:21:05.349Z,94.00
2023-06-06T05:23:32.645Z,93.90
2023-06-06T05:25:59.632Z,93.80
2023-06-06T05:28:27.675Z,93.60
2023-06-06T05:30:54.543Z,93.40
2023-06-06T05:33:21.521Z,93.40
2023-06-06T05:35:50.972Z,93.20
2023-06-06T05:38:20.407Z,93.20
2023-06-06T05:40:49.366Z,93.10
2023-06-06T05:43:17.230Z,92.90
2023-06-06T05:45:46.556Z,92.70
2023-06-06T05:48:13.568Z,92.80
2023-06-06T05:50:41.063Z,92.80
2023-06-06T05:53:07.890Z,92.70
2023-06-06T05:55:35.097Z,93.00
2023-06-06T05:58:02.394Z,92.40
2023-06-06T06:00:30.310Z,92.10
2023-06-06T06:02:58.762Z,92.10
2023-06-06T06:05:29.328Z,91.90
2023-06-06T06:08:00.478Z,91.70
2023-06-06T06:10:32.810Z,91.40
2023-06-06T06:13:02.351Z,92.10
2023-06-06T06:15:32.810Z,91.40
2023-06-06T06:18:00.191Z,91.60
2023-06-06T06:20:29.862Z,91.40
2023-06-06T06:22:56.936Z,91.50
2023-06-06T06:25:25.995Z,91.00
2023-06-06T06:27:52.962Z,90.60
2023-06-06T06:30:21.981Z,90.70
2023-06-06T06:32:52.058Z,90.90
2023-06-06T06:35:18.956Z,90.50
2023-06-06T06:37:47.615Z,90.10
2023-06-06T06:40:19.090Z,90.00
2023-06-06T06:42:46.053Z,90.00
2023-06-06T06:45:20.840Z,89.80
2023-06-06T06:47:47.740Z,89.70
2023-06-06T06:50:20.696Z,90.40
2023-06-06T06:52:47.677Z,90.00
2023-06-06T06:55:14.460Z,89.80
2023-06-06T06:57:49.643Z,89.50
2023-06-06T07:00:20.350Z,89.20
2023-06-06T07:02:47.369Z,89.00
2023-06-06T07:05:17.660Z,89.00
2023-06-06T07:07:51.457Z,90.00
2023-06-06T07:10:23.906Z,90.10
2023-06-06T07:12:52.332Z,88.90
2023-06-06T07:15:22.367Z,87.30
2023-06-06T07:17:52.248Z,87.90
2023-06-06T07:20:21.287Z,87.40
2023-06-06T07:22:48.452Z,87.50
2023-06-06T07:25:15.444Z,85.40
2023-06-06T07:27:44.568Z,85.00
2023-06-06T07:30:15.424Z,86.80
2023-06-06T07:32:45.744Z,84.70
2023-06-06T07:35:16.654Z,84.30
2023-06-06T07:37:43.605Z,83.20
2023-06-06T07:40:12.166Z,82.00
2023-06-06T07:42:40.363Z,82.10
2023-06-06T07:45:09.869Z,80.80
2023-06-06T07:47:36.814Z,80.80
2023-06-06T07:50:04.349Z,80.50
2023-06-06T07:52:33.872Z,80.40
2023-06-06T07:55:00.978Z,80.90
2023-06-06T07:57:28.453Z,80.50
2023-06-06T07:59:55.922Z,80.80
2023-06-06T08:02:23.430Z,80.60
2023-06-06T08:04:50.312Z,81.00
2023-06-06T08:07:17.138Z,80.60
2023-06-06T08:09:44.593Z,82.20
2023-06-06T08:12:12.329Z,80.50
2023-06-06T08:14:39.542Z,80.40
2023-06-06T08:17:06.997Z,80.50
2023-06-06T08:19:34.087Z,80.00
2023-06-06T08:22:03.904Z,79.60
2023-06-06T08:24:30.971Z,80.30
2023-06-06T08:26:58.402Z,79.70
2023-06-06T08:29:25.361Z,79.40
2023-06-06T08:31:53.710Z,78.70
2023-06-06T08:34:21.238Z,80.30
2023-06-06T08:36:49.181Z,79.10
2023-06-06T08:39:19.553Z,80.10
2023-06-06T08:41:49.824Z,79.30
2023-06-06T08:44:17.227Z,79.80
2023-06-06T08:46:45.647Z,78.60
2023-06-06T08:49:12.556Z,79.20
2023-06-06T08:51:39.419Z,78.20
2023-06-06T08:54:06.270Z,78.40
2023-06-06T08:56:33.546Z,79.40
2023-06-06T08:59:00.378Z,79.30
2023-06-06T09:01:27.283Z,80.40
2023-06-06T09:03:54.456Z,80.50
2023-06-06T09:06:22.143Z,79.60
2023-06-06T09:08:51.667Z,79.90
2023-06-06T09:11:18.984Z,78.70
2023-06-06T09:13:46.562Z,77.90
2023-06-06T09:16:18.604Z,77.50
2023-06-06T09:18:49.986Z,78.20
2023-06-06T09:21:16.818Z,78.20
2023-06-06T09:23:43.769Z,78.20
2023-06-06T09:26:20.428Z,76.70
2023-06-06T09:28:47.284Z,78.20
2023-06-06T09:31:27.565Z,77.10
2023-06-06T09:33:55.557Z,75.70
2023-06-06T09:36:28.374Z,76.40
2023-06-06T09:39:14.836Z,77.00
2023-06-06T09:41:46.986Z,77.30
2023-06-06T09:44:21.616Z,77.20
2023-06-06T09:46:51.248Z,75.90
2023-06-06T09:49:18.744Z,75.20
2023-06-06T09:51:45.841Z,76.00
2023-06-06T09:54:12.957Z,76.60
2023-06-06T09:56:45.563Z,76.30
2023-06-06T09:59:12.595Z,76.70
2023-06-06T10:01:39.539Z,75.50
2023-06-06T10:04:06.725Z,75.40
2023-06-06T10:06:38.969Z,76.70
2023-06-06T10:09:06.647Z,75.60
2023-06-06T10:11:37.200Z,75.40
2023-06-06T10:14:09.847Z,76.40
2023-06-06T10:16:36.942Z,77.00
2023-06-06T10:19:06.468Z,74.30
2023-06-06T10:21:33.388Z,74.50
2023-06-06T10:24:00.554Z,75.30
2023-06-06T10:26:32.752Z,75.00
2023-06-06T10:29:12.728Z,75.40
2023-06-06T10:31:55.919Z,75.60
2023-06-06T10:34:33.563Z,76.10
2023-06-06T10:37:15.105Z,74.10
2023-06-06T10:39:59.508Z,73.10
2023-06-06T10:42:42.099Z,74.30
2023-06-06T10:45:09.441Z,74.40
2023-06-06T10:47:41.235Z,73.20
2023-06-06T10:50:14.147Z,74.10
2023-06-06T10:52:57.887Z,74.80
2023-06-06T10:55:25.346Z,71.80
2023-06-06T10:57:56.544Z,71.90
2023-06-06T11:00:28.869Z,73.20
2023-06-06T11:03:01.662Z,72.40
2023-06-06T11:05:30.880Z,71.10
2023-06-06T11:08:02.327Z,73.60
2023-06-06T11:10:46.204Z,72.50
2023-06-06T11:13:26.896Z,72.80
2023-06-06T11:15:57.734Z,72.30
2023-06-06T11:18:37.757Z,72.20
2023-06-06T11:21:07.099Z,70.40
2023-06-06T11:23:43.340Z,71.00
2023-06-06T11:26:11.330Z,70.40
2023-06-06T11:28:41.336Z,70.10
2023-06-06T11:31:08.844Z,69.40
2023-06-06T11:33:37.581Z,71.20
2023-06-06T11:36:05.001Z,70.60
2023-06-06T11:38:33.732Z,70.70
2023-06-06T11:41:07.245Z,71.60
2023-06-06T11:43:34.123Z,70.50
2023-06-06T11:46:07.532Z,69.60
2023-06-06T11:48:36.908Z,70.60
2023-06-06T11:51:16.206Z,71.80
2023-06-06T11:53:43.126Z,71.10
2023-06-06T11:56:20.658Z,70.60
2023-06-06T11:58:47.560Z,70.50
2023-06-06T12:01:16.344Z,70.30
2023-06-06T12:03:44.632Z,69.80
2023-06-06T12:06:11.775Z,71.80
2023-06-06T12:08:39.225Z,70.70
2023-06-06T12:11:25.293Z,70.40
2023-06-06T12:13:55.211Z,71.30
2023-06-06T12:16:26.402Z,70.70
2023-06-06T12:18:53.364Z,69.60
2023-06-06T12:21:20.216Z,70.60
2023-06-06T12:23:47.537Z,69.70
2023-06-06T12:26:17.914Z,70.40
2023-06-06T12:29:01.208Z,69.40
2023-06-06T12:31:31.466Z,66.20
2023-06-06T12:33:58.689Z,67.40
2023-06-06T12:36:26.848Z,67.20
2023-06-06T12:39:09.154Z,66.90
2023-06-06T12:41:42.342Z,67.30
2023-06-06T12:44:10.499Z,68.40
2023-06-06T12:46:37.972Z,68.80
2023-06-06T12:49:05.023Z,68.70
2023-06-06T12:51:35.443Z,68.80
2023-06-06T12:54:05.386Z,67.30
2023-06-06T12:56:32.331Z,68.80
2023-06-06T12:59:00.737Z,69.90
2023-06-06T13:01:32.834Z,66.70
2023-06-06T13:04:00.012Z,67.20
2023-06-06T13:06:27.278Z,65.60
2023-06-06T13:08:56.412Z,65.80
2023-06-06T13:11:23.687Z,66.10
2023-06-06T13:13:50.659Z,65.40
2023-06-06T13:16:17.788Z,67.00
2023-06-06T13:18:45.019Z,67.40
2023-06-06T13:21:12.176Z,66.80
2023-06-06T13:23:39.211Z,67.00
2023-06-06T13:26:06.142Z,65.40
2023-06-06T13:28:35.536Z,64.90
2023-06-06T13:31:04.644Z,65.60
2023-06-06T13:33:34.068Z,66.20
2023-06-06T13:36:01.083Z,64.20
2023-06-06T13:38:30.700Z,64.30
2023-06-06T13:40:57.567Z,64.00
2023-06-06T13:43:24.753Z,62.20
2023-06-06T13:45:51.695Z,61.70
2023-06-06T13:48:18.548Z,61.00
2023-06-06T13:50:45.457Z,61.10
2023-06-06T13:53:15.688Z,60.70
2023-06-06T13:55:42.540Z,60.30
2023-06-06T13:58:10.169Z,60.30
2023-06-06T14:00:38.098Z,59.70
2023-06-06T14:03:07.465Z,59.30
2023-06-06T14:05:36.628Z,59.10
2023-06-06T14:08:03.701Z,59.60
2023-06-06T14:10:30.507Z,58.90
2023-06-06T14:12:59.655Z,60.20
2023-06-06T14:15:26.525Z,62.40
2023-06-06T14:17:56.583Z,60.40
2023-06-06T14:20:33.552Z,61.20
2023-06-06T14:23:00.398Z,61.00
2023-06-06T14:25:32.957Z,59.60
2023-06-06T14:28:02.059Z,57.80
2023-06-06T14:30:28.877Z,58.10
2023-06-06T14:32:57.834Z,59.50
2023-06-06T14:35:29.214Z,59.10
2023-06-06T14:37:56.071Z,59.70
2023-06-06T14:40:22.909Z,59.50
2023-06-06T14:42:49.685Z,60.00
2023-06-06T14:45:18.740Z,59.40
2023-06-06T14:47:47.769Z,58.70
2023-06-06T14:50:15.708Z,59.00
2023-06-06T14:52:42.563Z,59.20
2023-06-06T14:55:09.550Z,59.70
2023-06-06T14:57:36.679Z,59.30
2023-06-06T15:00:04.224Z,61.20
2023-06-06T15:02:31.167Z,61.10
2023-06-06T15:04:58.822Z,61.00
2023-06-06T15:07:28.115Z,60.00
2023-06-06T15:09:57.683Z,61.90
2023-06-06T15:12:26.651Z,62.60
2023-06-06T15:14:53.525Z,61.90
2023-06-06T15:17:20.947Z,62.80
2023-06-06T15:19:47.841Z,63.30
2023-06-06T15:22:16.796Z,63.90
2023-06-06T15:24:46.304Z,64.90
2023-06-06T15:27:13.214Z,65.50
2023-06-06T15:29:44.833Z,65.90
2023-06-06T15:32:14.242Z,66.50
2023-06-06T15:34:43.652Z,64.90
2023-06-06T15:37:12.938Z,66.10
2023-06-06T15:39:45.539Z,64.70
2023-06-06T15:42:14.928Z,65.60
2023-06-06T15:44:42.668Z,64.40
2023-06-06T15:47:10.907Z,65.80
2023-06-06T15:49:40.221Z,67.00
2023-06-06T15:52:07.447Z,65.90
2023-06-06T15:54:34.253Z,66.90
2023-06-06T15:57:01.037Z,67.90
2023-06-06T15:59:29.549Z,66.60
2023-06-06T16:01:56.598Z,67.90
2023-06-06T16:04:27.065Z,67.60
2023-06-06T16:06:54.088Z,67.60
2023-06-06T16:09:21.668Z,67.80
2023-06-06T16:11:48.489Z,67.60
2023-06-06T16:14:15.739Z,67.30
2023-06-06T16:16:45.911Z,67.10
2023-06-06T16:19:19.116Z,67.40
2023-06-06T16:21:46.573Z,68.00
2023-06-06T16:24:19.757Z,68.80
2023-06-06T16:26:51.478Z,67.80
2023-06-06T16:29:27.406Z,67.50
2023-06-06T16:31:54.661Z,67.60
2023-06-06T16:34:21.576Z,68.20
2023-06-06T16:36:52.703Z,68.30
2023-06-06T16:39:19.959Z,68.00
2023-06-06T16:41:49.247Z,68.20
2023-06-06T16:44:18.901Z,68.20
2023-06-06T16:46:47.941Z,68.00
2023-06-06T16:49:14.810Z,68.50
2023-06-06T16:51:44.228Z,68.10
2023-06-06T16:54:13.674Z,68.20
2023-06-06T16:56:42.070Z,67.90
2023-06-06T16:59:11.907Z,68.30
2023-06-06T17:01:41.139Z,68.40
2023-06-06T17:04:08.168Z,68.70
2023-06-06T17:06:38.462Z,68.40
2023-06-06T17:09:07.682Z,69.30
2023-06-06T17:11:34.533Z,69.40
2023-06-06T17:14:03.976Z,69.20
2023-06-06T17:16:33.644Z,69.50
2023-06-06T17:19:00.994Z,69.80
2023-06-06T17:21:27.833Z,70.50
2023-06-06T17:23:57.414Z,70.10
2023-06-06T17:26:24.323Z,70.40
2023-06-06T17:28:53.339Z,70.40
2023-06-06T17:31:20.288Z,70.50
2023-06-06T17:33:47.171Z,70.20
2023-06-06T17:36:16.936Z,70.10
2023-06-06T17:38:44.154Z,70.40
2023-06-06T17:41:11.594Z,70.60
2023-06-06T17:43:38.487Z,70.80
2023-06-06T17:46:05.317Z,71.20
2023-06-06T17:48:34.613Z,71.30
2023-06-06T17:51:04.261Z,71.60
2023-06-06T17:53:32.781Z,71.80
2023-06-06T17:56:00.204Z,71.80
2023-06-06T17:58:28.066Z,72.00
2023-06-06T18:00:57.016Z,72.40
2023-06-06T18:03:23.959Z,72.70
2023-06-06T18:05:50.883Z,72.80
2023-06-06T18:08:18.751Z,72.80
2023-06-06T18:10:45.608Z,73.00
2023-06-06T18:13:13.230Z,73.20
2023-06-06T18:15:44.257Z,73.10
2023-06-06T18:18:13.674Z,73.40
2023-06-06T18:20:40.558Z,74.60
2023-06-06T18:23:09.515Z,74.20
2023-06-06T18:25:36.390Z,74.40
2023-06-06T18:28:04.388Z,74.90
2023-06-06T18:30:33.384Z,74.50
2023-06-06T18:33:00.274Z,75.20
2023-06-06T18:35:31.504Z,75.80
2023-06-06T18:37:58.658Z,75.70
2023-06-06T18:40:30.339Z,75.40
2023-06-06T18:42:57.142Z,75.90
2023-06-06T18:45:23.991Z,76.10
2023-06-06T18:47:57.547Z,77.40
2023-06-06T18:50:27.038Z,76.60
2023-06-06T18:52:56.733Z,76.60
2023-06-06T18:55:23.806Z,76.70
2023-06-06T18:57:53.181Z,78.00
2023-06-06T19:00:20.194Z,78.00
2023-06-06T19:02:51.833Z,78.10
2023-06-06T19:05:18.692Z,78.10
2023-06-06T19:07:47.732Z,78.50
2023-06-06T19:10:14.560Z,78.10
2023-06-06T19:15:13.945Z,79.80
2023-06-06T19:17:40.944Z,80.00
2023-06-06T19:20:09.990Z,80.10
2023-06-06T19:22:39.196Z,80.70
2023-06-06T19:25:08.789Z,80.70
2023-06-06T19:27:35.973Z,80.40
2023-06-06T19:30:03.643Z,80.40
2023-06-06T19:32:31.062Z,81.10
2023-06-06T19:34:58.011Z,81.00
2023-06-06T19:37:24.818Z,80.80
2023-06-06T19:39:53.625Z,80.20
2023-06-06T19:42:23.154Z,81.00
2023-06-06T19:44:50.007Z,81.90
2023-06-06T19:47:17.018Z,81.50
2023-06-06T19:49:43.954Z,82.30
2023-06-06T19:52:15.041Z,81.60
2023-06-06T19:54:41.972Z,83.00
2023-06-06T19:57:11.246Z,81.60
2023-06-06T19:59:40.226Z,82.20
2023-06-06T20:02:09.001Z,82.00
2023-06-06T20:04:35.874Z,82.30
2023-06-06T20:07:04.983Z,82.80
2023-06-06T20:09:31.787Z,83.40
2023-06-06T20:11:58.597Z,84.00
2023-06-06T20:14:25.454Z,83.50
2023-06-06T20:16:54.368Z,83.60
2023-06-06T20:19:23.810Z,84.50
2023-06-06T20:21:50.687Z,84.70
2023-06-06T20:24:17.473Z,85.10
2023-06-06T20:26:44.272Z,84.30
2023-06-06T20:29:11.131Z,84.50
2023-06-06T20:31:38.064Z,84.00
2023-06-06T20:34:04.977Z,85.20
2023-06-06T20:36:33.286Z,85.70
2023-06-06T20:39:04.878Z,86.50
2023-06-06T20:41:31.692Z,85.40
2023-06-06T20:44:01.609Z,84.40
2023-06-06T20:46:28.456Z,84.60
2023-06-06T20:48:57.419Z,84.50
2023-06-06T20:51:24.262Z,84.60
2023-06-06T20:53:55.684Z,85.20
2023-06-06T20:56:25.043Z,85.20
2023-06-06T20:58:52.037Z,85.20
2023-06-06T21:01:21.353Z,85.40
2023-06-06T21:03:48.204Z,85.60
2023-06-06T21:06:15.338Z,85.50
2023-06-06T21:08:42.263Z,85.00
2023-06-06T21:11:10.961Z,85.20
2023-06-06T21:13:37.757Z,85.70
2023-06-06T21:16:05.105Z,86.10
2023-06-06T21:18:31.999Z,85.70
2023-06-06T21:20:58.799Z,86.20
2023-06-06T21:23:26.618Z,86.60
2023-06-06T21:25:55.539Z,86.70
2023-06-06T21:28:24.870Z,86.60
2023-06-06T21:30:52.669Z,87.00
2023-06-06T21:33:19.560Z,87.40
2023-06-06T21:35:46.509Z,87.80
2023-06-06T21:38:13.324Z,87.70
2023-06-06T21:40:44.017Z,87.90
2023-06-06T21:43:11.026Z,87.50
2023-06-06T21:45:40.030Z,87.50
2023-06-06T21:48:07.056Z,87.90
2023-06-06T21:50:36.113Z,87.60
2023-06-06T21:53:05.235Z,87.70
2023-06-06T21:55:32.019Z,87.90
2023-06-06T21:58:01.355Z,87.70
2023-06-06T22:00:29.352Z,88.20
2023-06-06T22:02:58.928Z,88.70
2023-06-06T22:05:25.998Z,87.90
2023-06-06T22:07:52.816Z,88.60
2023-06-06T22:10:19.680Z,89.10
2023-06-06T22:12:46.598Z,89.50
2023-06-06T22:15:13.466Z,90.10
2023-06-06T22:17:40.354Z,90.20
2023-06-06T22:20:07.993Z,90.30
2023-06-06T22:22:37.136Z,90.30
2023-06-06T22:25:04.078Z,90.70
2023-06-06T22:27:31.270Z,90.80
2023-06-06T22:30:00.964Z,91.40
2023-06-06T22:32:30.244Z,91.20
2023-06-06T22:34:57.057Z,90.80
2023-06-06T22:37:26.176Z,90.20
2023-06-06T22:39:53.108Z,90.00
2023-06-06T22:42:21.458Z,90.40
2023-06-06T22:44:48.370Z,90.90
2023-06-06T22:47:15.166Z,91.10
2023-06-06T22:49:44.442Z,90.50
2023-06-06T22:52:13.151Z,90.40
2023-06-06T22:54:42.465Z,90.50
2023-06-06T22:57:09.315Z,90.40
2023-06-06T22:59:36.141Z,90.00
2023-06-06T23:02:02.943Z,90.40
2023-06-06T23:04:29.835Z,90.60
2023-06-06T23:06:57.011Z,91.20
2023-06-06T23:09:26.438Z,90.70
2023-06-06T23:11:54.777Z,90.90
2023-06-06T23:14:21.943Z,91.40
2023-06-06T23:16:53.703Z,91.20
2023-06-06T23:19:22.873Z,91.60
2023-06-06T23:21:54.046Z,92.00
2023-06-06T23:24:20.890Z,92.10
2023-06-06T23:26:47.706Z,92.20
2023-06-06T23:29:14.966Z,92.80
2023-06-06T23:31:42.321Z,92.60
2023-06-06T23:34:09.192Z,92.90
2023-06-06T23:36:38.870Z,92.80
2023-06-06T23:39:06.108Z,92.80
2023-06-06T23:41:37.638Z,93.20
2023-06-06T23:44:04.667Z,92.80
2023-06-06T23:46:33.771Z,93.30
2023-06-06T23:49:00.630Z,93.00
2023-06-06T23:51:28.386Z,93.20
2023-06-06T23:53:58.003Z,93.50
2023-06-06T23:56:24.787Z,93.00
2023-06-06T23:58:51.608Z,93.10
